PWSweather.com
Personal Weather Stations
Station Observations
GRD01
Warsaw, LesznoPL 05-084

WarsawLesznoPL 05-084

Lat: 52.257404, Lon: 20.564847

Elevation: 298

Station Type: WH3080

http://pogoda.kampinos.waw.pl

High Low Average
Temperature 56.8°F13.8°C 45.9°F7.7°C 50.3°F10.2°C
Dew Point 44.0°F6.7°C 36.1°F2.3°C 40.0°F4.4°C
Winds 22.8 mph 36.7 kmh Calm Calm 8.0 mph S12.9 kmh S
Wind Gusts 35.8 mph57.6 kmh 3.8 mph6.1 kmh 16.0 mph25.7 kmh
Humidity 80% 57% 68%
Pressure 29.14 in986.8 mb 28.87 in977.7 mb -
Precipitation 0.00 in0.0 mm - -
Hour Temp Dew Point Humidity Winds Wind Gusts Pressure Precip Precip Rate Daily Precip Total
12:00 AM 47.1°F8.4°C 37.1°F2.8°C 68% 5.4 mph SE8.7 kmh SE 8.3 mph13.4 kmh 28.89 in978.3 mb 0.00 in0.0 mm 0.00 in0.0 mm 0.00 in0.0 mm
12:15 AM 48.0°F8.9°C 38.3°F3.5°C 69% 3.8 mph SE6.1 kmh SE 9.2 mph14.8 kmh 28.89 in978.3 mb 0.00 in0.0 mm 0.00 in0.0 mm 0.00 in0.0 mm
12:30 AM 48.2°F9.0°C 38.5°F3.6°C 69% 6.9 mph S11.1 kmh S 11.4 mph18.3 kmh 28.89 in978.3 mb 0.00 in0.0 mm 0.00 in0.0 mm 0.00 in0.0 mm
12:45 AM 48.4°F9.1°C 38.7°F3.7°C 69% 6.9 mph SSW11.1 kmh SSW 13.6 mph21.9 kmh 28.88 in978.0 mb 0.00 in0.0 mm 0.00 in0.0 mm 0.00 in0.0 mm
01:00 AM 48.6°F9.2°C 38.5°F3.6°C 68% 4.5 mph ESE7.2 kmh ESE 15.2 mph24.5 kmh 28.88 in978.0 mb 0.00 in0.0 mm 0.00 in0.0 mm 0.00 in0.0 mm
01:15 AM 48.0°F8.9°C 38.3°F3.5°C 69% 3.1 mph NE5.0 kmh NE 10.7 mph17.2 kmh 28.89 in978.3 mb 0.00 in0.0 mm 0.00 in0.0 mm 0.00 in0.0 mm
01:30 AM 47.5°F8.6°C 38.2°F3.4°C 70% 3.8 mph E6.1 kmh E 10.7 mph17.2 kmh 28.88 in978.0 mb 0.00 in0.0 mm 0.00 in0.0 mm 0.00 in0.0 mm
01:45 AM 47.7°F8.7°C 38.4°F3.6°C 70% 3.1 mph E5.0 kmh E 10.7 mph17.2 kmh 28.88 in978.0 mb 0.00 in0.0 mm 0.00 in0.0 mm 0.00 in0.0 mm
02:00 AM 47.1°F8.4°C 37.8°F3.2°C 70% 3.1 mph SSE5.0 kmh SSE 8.3 mph13.4 kmh 28.88 in978.0 mb 0.00 in0.0 mm 0.00 in0.0 mm 0.00 in0.0 mm
02:15 AM 46.9°F8.3°C 38.0°F3.3°C 71% 3.1 mph WSW5.0 kmh WSW 7.6 mph12.2 kmh 28.88 in978.0 mb 0.00 in0.0 mm 0.00 in0.0 mm 0.00 in0.0 mm
02:30 AM 47.1°F8.4°C 38.2°F3.4°C 71% 3.8 mph SE6.1 kmh SE 9.2 mph14.8 kmh 28.87 in977.7 mb 0.00 in0.0 mm 0.00 in0.0 mm 0.00 in0.0 mm
02:45 AM 47.5°F8.6°C 38.5°F3.6°C 71% 3.8 mph SE6.1 kmh SE 7.6 mph12.2 kmh 28.87 in977.7 mb 0.00 in0.0 mm 0.00 in0.0 mm 0.00 in0.0 mm
03:00 AM 48.0°F8.9°C 39.8°F4.3°C 73% 4.5 mph NNE7.2 kmh NNE 15.9 mph25.6 kmh 28.87 in977.7 mb 0.00 in0.0 mm 0.00 in0.0 mm 0.00 in0.0 mm
03:15 AM 48.0°F8.9°C 40.5°F4.7°C 75% 3.8 mph NNE6.1 kmh NNE 13.0 mph20.9 kmh 28.88 in978.0 mb 0.00 in0.0 mm 0.00 in0.0 mm 0.00 in0.0 mm
03:30 AM 48.2°F9.0°C 40.6°F4.8°C 75% 5.4 mph SE8.7 kmh SE 13.6 mph21.9 kmh 28.88 in978.0 mb 0.00 in0.0 mm 0.00 in0.0 mm 0.00 in0.0 mm
03:45 AM 48.6°F9.2°C 41.0°F5.0°C 75% 9.2 mph SE14.8 kmh SE 15.9 mph25.6 kmh 28.88 in978.0 mb 0.00 in0.0 mm 0.00 in0.0 mm 0.00 in0.0 mm
04:00 AM 48.0°F8.9°C 40.8°F4.9°C 76% 3.8 mph NE6.1 kmh NE 14.5 mph23.3 kmh 28.88 in978.0 mb 0.00 in0.0 mm 0.00 in0.0 mm 0.00 in0.0 mm
04:15 AM 47.7°F8.7°C 41.1°F5.1°C 78% 7.6 mph SSE12.2 kmh SSE 12.1 mph19.5 kmh 28.89 in978.3 mb 0.00 in0.0 mm 0.00 in0.0 mm 0.00 in0.0 mm
04:30 AM 47.7°F8.7°C 41.8°F5.4°C 80% 9.2 mph NW14.8 kmh NW 13.6 mph21.9 kmh 28.89 in978.3 mb 0.00 in0.0 mm 0.00 in0.0 mm 0.00 in0.0 mm
04:45 AM 47.8°F8.8°C 42.0°F5.6°C 80% 5.4 mph NE8.7 kmh NE 15.9 mph25.6 kmh 28.90 in978.7 mb 0.00 in0.0 mm 0.00 in0.0 mm 0.00 in0.0 mm
05:00 AM 47.8°F8.8°C 41.6°F5.3°C 79% 5.4 mph SW8.7 kmh SW 16.8 mph27.0 kmh 28.89 in978.3 mb 0.00 in0.0 mm 0.00 in0.0 mm 0.00 in0.0 mm
05:15 AM 47.8°F8.8°C 41.3°F5.2°C 78% 11.4 mph E18.3 kmh E 19.7 mph31.7 kmh 28.89 in978.3 mb 0.00 in0.0 mm 0.00 in0.0 mm 0.00 in0.0 mm
05:30 AM 48.0°F8.9°C 41.5°F5.3°C 78% 8.3 mph WSW13.4 kmh WSW 13.6 mph21.9 kmh 28.90 in978.7 mb 0.00 in0.0 mm 0.00 in0.0 mm 0.00 in0.0 mm
05:45 AM 48.0°F8.9°C 41.5°F5.3°C 78% 3.1 mph S5.0 kmh S 13.0 mph20.9 kmh 28.90 in978.7 mb 0.00 in0.0 mm 0.00 in0.0 mm 0.00 in0.0 mm
06:00 AM 48.0°F8.9°C 41.2°F5.1°C 77% 6.0 mph SW9.7 kmh SW 13.0 mph20.9 kmh 28.90 in978.7 mb 0.00 in0.0 mm 0.00 in0.0 mm 0.00 in0.0 mm
06:15 AM 48.0°F8.9°C 41.2°F5.1°C 77% 9.8 mph SW15.8 kmh SW 13.0 mph20.9 kmh 28.91 in979.0 mb 0.00 in0.0 mm 0.00 in0.0 mm 0.00 in0.0 mm
06:30 AM 48.2°F9.0°C 41.3°F5.2°C 77% 8.3 mph SSW13.4 kmh SSW 22.1 mph35.6 kmh 28.91 in979.0 mb 0.00 in0.0 mm 0.00 in0.0 mm 0.00 in0.0 mm
06:45 AM 48.2°F9.0°C 41.0°F5.0°C 76% 17.4 mph SW28.0 kmh SW 22.8 mph36.7 kmh 28.92 in979.3 mb 0.00 in0.0 mm 0.00 in0.0 mm 0.00 in0.0 mm
07:00 AM 48.6°F9.2°C 41.3°F5.2°C 76% 11.4 mph SSW18.3 kmh SSW 25.9 mph41.7 kmh 28.93 in979.7 mb 0.00 in0.0 mm 0.00 in0.0 mm 0.00 in0.0 mm
07:15 AM 48.9°F9.4°C 41.7°F5.4°C 76% 13.6 mph WNW21.9 kmh WNW 30.4 mph48.9 kmh 28.93 in979.7 mb 0.00 in0.0 mm 0.00 in0.0 mm 0.00 in0.0 mm
07:30 AM 49.1°F9.5°C 41.5°F5.3°C 75% 22.8 mph SW36.7 kmh SW 31.1 mph50.1 kmh 28.94 in980.0 mb 0.00 in0.0 mm 0.00 in0.0 mm 0.00 in0.0 mm
07:45 AM 49.6°F9.8°C 41.7°F5.4°C 74% 20.6 mph S33.2 kmh S 35.8 mph57.6 kmh 28.95 in980.4 mb 0.00 in0.0 mm 0.00 in0.0 mm 0.00 in0.0 mm
08:00 AM 49.8°F9.9°C 41.9°F5.5°C 74% 15.9 mph S25.6 kmh S 33.6 mph54.1 kmh 28.95 in980.4 mb 0.00 in0.0 mm 0.00 in0.0 mm 0.00 in0.0 mm
08:15 AM 50.0°F10.0°C 41.7°F5.4°C 73% 17.4 mph SW28.0 kmh SW 32.7 mph52.6 kmh 28.96 in980.7 mb 0.00 in0.0 mm 0.00 in0.0 mm 0.00 in0.0 mm
08:30 AM 50.4°F10.2°C 42.0°F5.6°C 73% 10.7 mph SW17.2 kmh SW 27.3 mph43.9 kmh 28.96 in980.7 mb 0.00 in0.0 mm 0.00 in0.0 mm 0.00 in0.0 mm
08:45 AM 50.9°F10.5°C 42.6°F5.9°C 73% 15.2 mph WSW24.5 kmh WSW 32.0 mph51.5 kmh 28.97 in981.0 mb 0.00 in0.0 mm 0.00 in0.0 mm 0.00 in0.0 mm
09:00 AM 51.1°F10.6°C 42.4°F5.8°C 72% 22.1 mph SSW35.6 kmh SSW 34.2 mph55.0 kmh 28.98 in981.4 mb 0.00 in0.0 mm 0.00 in0.0 mm 0.00 in0.0 mm
09:15 AM 51.1°F10.6°C 42.0°F5.6°C 71% 17.4 mph SW28.0 kmh SW 35.8 mph57.6 kmh 28.98 in981.4 mb 0.00 in0.0 mm 0.00 in0.0 mm 0.00 in0.0 mm
09:30 AM 51.1°F10.6°C 42.0°F5.6°C 71% 9.2 mph S14.8 kmh S 28.9 mph46.5 kmh 28.98 in981.4 mb 0.00 in0.0 mm 0.00 in0.0 mm 0.00 in0.0 mm
09:45 AM 51.1°F10.6°C 42.0°F5.6°C 71% 16.8 mph SSW27.0 kmh SSW 30.4 mph48.9 kmh 28.99 in981.7 mb 0.00 in0.0 mm 0.00 in0.0 mm 0.00 in0.0 mm
10:00 AM 51.3°F10.7°C 41.8°F5.4°C 70% 14.5 mph SSW23.3 kmh SSW 35.8 mph57.6 kmh 28.99 in981.7 mb 0.00 in0.0 mm 0.00 in0.0 mm 0.00 in0.0 mm
10:15 AM 51.3°F10.7°C 41.8°F5.4°C 70% 15.2 mph SSW24.5 kmh SSW 31.1 mph50.1 kmh 28.99 in981.7 mb 0.00 in0.0 mm 0.00 in0.0 mm 0.00 in0.0 mm
10:30 AM 51.3°F10.7°C 41.8°F5.4°C 70% 19.7 mph SW31.7 kmh SW 29.8 mph48.0 kmh 29.00 in982.1 mb 0.00 in0.0 mm 0.00 in0.0 mm 0.00 in0.0 mm
10:45 AM 51.6°F10.9°C 42.2°F5.7°C 70% 21.3 mph S34.3 kmh S 32.7 mph52.6 kmh 29.00 in982.1 mb 0.00 in0.0 mm 0.00 in0.0 mm 0.00 in0.0 mm
11:00 AM 52.2°F11.2°C 42.7°F5.9°C 70% 9.8 mph S15.8 kmh S 21.3 mph34.3 kmh 29.01 in982.4 mb 0.00 in0.0 mm 0.00 in0.0 mm 0.00 in0.0 mm
11:15 AM 53.6°F12.0°C 44.0°F6.7°C 70% 11.4 mph WSW18.3 kmh WSW 19.7 mph31.7 kmh 29.01 in982.4 mb 0.00 in0.0 mm 0.00 in0.0 mm 0.00 in0.0 mm
11:30 AM 54.3°F12.4°C 43.6°F6.4°C 67% 14.5 mph NW23.3 kmh NW 23.5 mph37.8 kmh 29.01 in982.4 mb 0.00 in0.0 mm 0.00 in0.0 mm 0.00 in0.0 mm
11:45 AM 55.2°F12.9°C 42.4°F5.8°C 62% 14.5 mph S23.3 kmh S 19.7 mph31.7 kmh 29.01 in982.4 mb 0.00 in0.0 mm 0.00 in0.0 mm 0.00 in0.0 mm
12:00 PM 54.7°F12.6°C 41.5°F5.3°C 61% 13.6 mph WSW21.9 kmh WSW 29.8 mph48.0 kmh 29.01 in982.4 mb 0.00 in0.0 mm 0.00 in0.0 mm 0.00 in0.0 mm
12:15 PM 54.7°F12.6°C 41.5°F5.3°C 61% 11.4 mph SW18.3 kmh SW 27.3 mph43.9 kmh 29.02 in982.7 mb 0.00 in0.0 mm 0.00 in0.0 mm 0.00 in0.0 mm
12:30 PM 54.7°F12.6°C 41.5°F5.3°C 61% 13.6 mph SW21.9 kmh SW 32.7 mph52.6 kmh 29.02 in982.7 mb 0.00 in0.0 mm 0.00 in0.0 mm 0.00 in0.0 mm
12:45 PM 56.1°F13.4°C 42.4°F5.8°C 60% 13.0 mph S20.9 kmh S 33.6 mph54.1 kmh 29.03 in983.1 mb 0.00 in0.0 mm 0.00 in0.0 mm 0.00 in0.0 mm
01:00 PM 56.8°F13.8°C 43.1°F6.2°C 60% 16.8 mph WSW27.0 kmh WSW 23.5 mph37.8 kmh 29.02 in982.7 mb 0.00 in0.0 mm 0.00 in0.0 mm 0.00 in0.0 mm
01:15 PM 55.8°F13.2°C 40.7°F4.8°C 57% 14.5 mph WSW23.3 kmh WSW 22.8 mph36.7 kmh 29.02 in982.7 mb 0.00 in0.0 mm 0.00 in0.0 mm 0.00 in0.0 mm
01:30 PM 55.6°F13.1°C 41.0°F5.0°C 58% 7.6 mph SW12.2 kmh SW 22.1 mph35.6 kmh 29.03 in983.1 mb 0.00 in0.0 mm 0.00 in0.0 mm 0.00 in0.0 mm
01:45 PM 55.4°F13.0°C 41.3°F5.2°C 59% 9.2 mph SW14.8 kmh SW 19.0 mph30.6 kmh 29.04 in983.4 mb 0.00 in0.0 mm 0.00 in0.0 mm 0.00 in0.0 mm
02:00 PM 55.2°F12.9°C 40.7°F4.8°C 58% 6.9 mph SSE11.1 kmh SSE 16.8 mph27.0 kmh 29.04 in983.4 mb 0.00 in0.0 mm 0.00 in0.0 mm 0.00 in0.0 mm
02:15 PM 54.9°F12.7°C 40.8°F4.9°C 59% 11.4 mph N18.3 kmh N 15.9 mph25.6 kmh 29.04 in983.4 mb 0.00 in0.0 mm 0.00 in0.0 mm 0.00 in0.0 mm
02:30 PM 54.7°F12.6°C 41.1°F5.1°C 60% 6.9 mph W11.1 kmh W 15.9 mph25.6 kmh 29.05 in983.7 mb 0.00 in0.0 mm 0.00 in0.0 mm 0.00 in0.0 mm
02:45 PM 54.5°F12.5°C 40.9°F4.9°C 60% 5.4 mph SW8.7 kmh SW 15.9 mph25.6 kmh 29.05 in983.7 mb 0.00 in0.0 mm 0.00 in0.0 mm 0.00 in0.0 mm
03:00 PM 54.7°F12.6°C 41.1°F5.1°C 60% 5.4 mph SW8.7 kmh SW 16.8 mph27.0 kmh 29.05 in983.7 mb 0.00 in0.0 mm 0.00 in0.0 mm 0.00 in0.0 mm
03:15 PM 54.9°F12.7°C 39.9°F4.4°C 57% 6.0 mph SW9.7 kmh SW 17.4 mph28.0 kmh 29.05 in983.7 mb 0.00 in0.0 mm 0.00 in0.0 mm 0.00 in0.0 mm
03:30 PM 54.5°F12.5°C 40.0°F4.4°C 58% 9.8 mph SSW15.8 kmh SSW 13.6 mph21.9 kmh 29.05 in983.7 mb 0.00 in0.0 mm 0.00 in0.0 mm 0.00 in0.0 mm
03:45 PM 54.3°F12.4°C 41.1°F5.1°C 61% 3.8 mph S6.1 kmh S 10.7 mph17.2 kmh 29.06 in984.1 mb 0.00 in0.0 mm 0.00 in0.0 mm 0.00 in0.0 mm
04:00 PM 54.0°F12.2°C 40.8°F4.9°C 61% 6.9 mph SSW11.1 kmh SSW 9.8 mph15.8 kmh 29.05 in983.7 mb 0.00 in0.0 mm 0.00 in0.0 mm 0.00 in0.0 mm
04:15 PM 53.6°F12.0°C 40.9°F4.9°C 62% 6.9 mph SW11.1 kmh SW 9.2 mph14.8 kmh 29.06 in984.1 mb 0.00 in0.0 mm 0.00 in0.0 mm 0.00 in0.0 mm
04:30 PM 53.2°F11.8°C 40.5°F4.7°C 62% 6.0 mph S9.7 kmh S 9.2 mph14.8 kmh 29.06 in984.1 mb 0.00 in0.0 mm 0.00 in0.0 mm 0.00 in0.0 mm
04:45 PM 52.7°F11.5°C 40.5°F4.7°C 63% 3.1 mph N5.0 kmh N 12.1 mph19.5 kmh 29.07 in984.4 mb 0.00 in0.0 mm 0.00 in0.0 mm 0.00 in0.0 mm
05:00 PM 52.5°F11.4°C 40.3°F4.6°C 63% 6.9 mph WSW11.1 kmh WSW 11.4 mph18.3 kmh 29.07 in984.4 mb 0.00 in0.0 mm 0.00 in0.0 mm 0.00 in0.0 mm
05:15 PM 52.2°F11.2°C 39.9°F4.4°C 63% 2.2 mph SW3.5 kmh SW 8.3 mph13.4 kmh 29.07 in984.4 mb 0.00 in0.0 mm 0.00 in0.0 mm 0.00 in0.0 mm
05:30 PM 52.0°F11.1°C 39.8°F4.3°C 63% 3.1 mph W5.0 kmh W 7.6 mph12.2 kmh 29.08 in984.8 mb 0.00 in0.0 mm 0.00 in0.0 mm 0.00 in0.0 mm
05:45 PM 51.6°F10.9°C 39.4°F4.1°C 63% 5.4 mph SSW8.7 kmh SSW 7.6 mph12.2 kmh 29.08 in984.8 mb 0.00 in0.0 mm 0.00 in0.0 mm 0.00 in0.0 mm
06:00 PM 51.3°F10.7°C 39.1°F3.9°C 63% 1.6 mph WSW2.6 kmh WSW 5.4 mph8.7 kmh 29.08 in984.8 mb 0.00 in0.0 mm 0.00 in0.0 mm 0.00 in0.0 mm
06:15 PM 51.1°F10.6°C 38.9°F3.8°C 63% 0.7 mph S1.1 kmh S 8.3 mph13.4 kmh 29.10 in985.4 mb 0.00 in0.0 mm 0.00 in0.0 mm 0.00 in0.0 mm
06:30 PM 50.7°F10.4°C 38.6°F3.7°C 63% 2.2 mph SSW3.5 kmh SSW 3.8 mph6.1 kmh 29.10 in985.4 mb 0.00 in0.0 mm 0.00 in0.0 mm 0.00 in0.0 mm
06:45 PM 50.0°F10.0°C 38.3°F3.5°C 64% Calm Calm 3.8 mph6.1 kmh 29.10 in985.4 mb 0.00 in0.0 mm 0.00 in0.0 mm 0.00 in0.0 mm
07:00 PM 49.6°F9.8°C 38.3°F3.5°C 65% 3.1 mph SSW5.0 kmh SSW 5.4 mph8.7 kmh 29.11 in985.8 mb 0.00 in0.0 mm 0.00 in0.0 mm 0.00 in0.0 mm
07:15 PM 49.6°F9.8°C 38.3°F3.5°C 65% 1.6 mph SSW2.6 kmh SSW 7.6 mph12.2 kmh 29.11 in985.8 mb 0.00 in0.0 mm 0.00 in0.0 mm 0.00 in0.0 mm
07:30 PM 49.8°F9.9°C 38.5°F3.6°C 65% 2.2 mph SW3.5 kmh SW 6.0 mph9.7 kmh 29.11 in985.8 mb 0.00 in0.0 mm 0.00 in0.0 mm 0.00 in0.0 mm
07:45 PM 49.6°F9.8°C 38.0°F3.3°C 64% 1.6 mph SSW2.6 kmh SSW 6.9 mph11.1 kmh 29.11 in985.8 mb 0.00 in0.0 mm 0.00 in0.0 mm 0.00 in0.0 mm
08:00 PM 49.5°F9.7°C 37.8°F3.2°C 64% 3.1 mph S5.0 kmh S 5.4 mph8.7 kmh 29.11 in985.8 mb 0.00 in0.0 mm 0.00 in0.0 mm 0.00 in0.0 mm
08:15 PM 48.6°F9.2°C 37.3°F2.9°C 65% 0.7 mph S1.1 kmh S 4.5 mph7.2 kmh 29.12 in986.1 mb 0.00 in0.0 mm 0.00 in0.0 mm 0.00 in0.0 mm
08:30 PM 47.8°F8.8°C 37.4°F3.0°C 67% 3.1 mph SE5.0 kmh SE 4.5 mph7.2 kmh 29.11 in985.8 mb 0.00 in0.0 mm 0.00 in0.0 mm 0.00 in0.0 mm
08:45 PM 47.5°F8.6°C 37.4°F3.0°C 68% 2.2 mph E3.5 kmh E 3.8 mph6.1 kmh 29.12 in986.1 mb 0.00 in0.0 mm 0.00 in0.0 mm 0.00 in0.0 mm
09:00 PM 47.7°F8.7°C 37.6°F3.1°C 68% 2.2 mph SW3.5 kmh SW 8.3 mph13.4 kmh 29.12 in986.1 mb 0.00 in0.0 mm 0.00 in0.0 mm 0.00 in0.0 mm
09:15 PM 47.8°F8.8°C 37.8°F3.2°C 68% 3.1 mph SW5.0 kmh SW 8.3 mph13.4 kmh 29.12 in986.1 mb 0.00 in0.0 mm 0.00 in0.0 mm 0.00 in0.0 mm
09:30 PM 47.8°F8.8°C 37.8°F3.2°C 68% 2.2 mph WSW3.5 kmh WSW 6.9 mph11.1 kmh 29.12 in986.1 mb 0.00 in0.0 mm 0.00 in0.0 mm 0.00 in0.0 mm
09:45 PM 47.7°F8.7°C 37.6°F3.1°C 68% 0.7 mph SSW1.1 kmh SSW 4.5 mph7.2 kmh 29.13 in986.5 mb 0.00 in0.0 mm 0.00 in0.0 mm 0.00 in0.0 mm
10:00 PM 47.5°F8.6°C 37.4°F3.0°C 68% 3.1 mph ESE5.0 kmh ESE 6.9 mph11.1 kmh 29.13 in986.5 mb 0.00 in0.0 mm 0.00 in0.0 mm 0.00 in0.0 mm
10:15 PM 47.5°F8.6°C 37.4°F3.0°C 68% 2.2 mph NNE3.5 kmh NNE 5.4 mph8.7 kmh 29.13 in986.5 mb 0.00 in0.0 mm 0.00 in0.0 mm 0.00 in0.0 mm
10:30 PM 47.1°F8.4°C 37.1°F2.8°C 68% 2.2 mph SSW3.5 kmh SSW 5.4 mph8.7 kmh 29.13 in986.5 mb 0.00 in0.0 mm 0.00 in0.0 mm 0.00 in0.0 mm
10:45 PM 46.9°F8.3°C 36.9°F2.7°C 68% 0.7 mph WSW1.1 kmh WSW 4.5 mph7.2 kmh 29.13 in986.5 mb 0.00 in0.0 mm 0.00 in0.0 mm 0.00 in0.0 mm
11:00 PM 46.8°F8.2°C 36.8°F2.7°C 68% 1.6 mph SE2.6 kmh SE 3.8 mph6.1 kmh 29.13 in986.5 mb 0.00 in0.0 mm 0.00 in0.0 mm 0.00 in0.0 mm
11:15 PM 46.4°F8.0°C 36.4°F2.4°C 68% 1.6 mph SW2.6 kmh SW 3.8 mph6.1 kmh 29.14 in986.8 mb 0.00 in0.0 mm 0.00 in0.0 mm 0.00 in0.0 mm
11:30 PM 46.0°F7.8°C 36.1°F2.3°C 68% 2.2 mph SW3.5 kmh SW 4.5 mph7.2 kmh 29.13 in986.5 mb 0.00 in0.0 mm 0.00 in0.0 mm 0.00 in0.0 mm
11:45 PM 45.9°F7.7°C 36.3°F2.4°C 69% 0.7 mph SW1.1 kmh SW 3.8 mph6.1 kmh 29.14 in986.8 mb 0.00 in0.0 mm 0.00 in0.0 mm 0.00 in0.0 mm